Craryville, New York
Current Conditions -  °F | °C
As of 2:54 AM on Sunday 26 Oct 2014 (Local Time) from KPSF Reporting Station
Thunderstorm Thunderstorm  
Wind Chill: 37°   Ceiling: Unl
Heat Index: 43°   Visibility: 6mi
Dew Point: 41°   Wind: 12mph
Humidity: 93%   Direction: 270°W
Pressure: 29.5"   Gusts: 24mph
Location:  42.17°N, 73.58°W
Report Text: KPSF 260654Z AUTO 27010G21KT 6SM VCTS BR FEW025 FEW038 SCT048 06/05 A2950 RMK AO2 LTG DSNT SW-N SLP982 T00610050
Loading
Personal Weather Stations






























Interactive Weather Map
Tropical Storm Tracking
New forecast layout! Learn more

10-Day Weather Forecast

Advertisements
Track Severe Weather on mobile